createdAt,value
2019-01-02T00:00:51.068Z,1009.94
2019-01-02T00:01:51.050Z,1009.89
2019-01-02T00:02:51.021Z,1009.83
2019-01-02T00:03:51.002Z,1009.99
2019-01-02T00:04:50.971Z,1009.86
2019-01-02T00:05:50.957Z,1009.85
2019-01-02T00:06:50.931Z,1009.84
2019-01-02T00:07:50.906Z,1009.99
2019-01-02T00:08:50.880Z,1009.90
2019-01-02T00:09:50.862Z,1009.90
2019-01-02T00:10:50.834Z,1009.90
2019-01-02T00:11:50.809Z,1009.94
2019-01-02T00:12:50.789Z,1009.88
2019-01-02T00:13:50.766Z,1009.89
2019-01-02T00:14:50.743Z,1009.98
2019-01-02T00:15:50.770Z,1010.02
2019-01-02T00:16:50.699Z,1009.99
2019-01-02T00:17:50.677Z,1010.03
2019-01-02T00:18:50.653Z,1010.09
2019-01-02T00:19:50.632Z,1010.16
2019-01-02T00:20:50.607Z,1010.09
2019-01-02T00:21:50.585Z,1010.06
2019-01-02T00:22:50.561Z,1010.10
2019-01-02T00:23:50.533Z,1010.13
2019-01-02T00:24:50.516Z,1010.14
2019-01-02T00:25:50.492Z,1010.08
2019-01-02T00:26:50.469Z,1010.10
2019-01-02T00:27:50.450Z,1010.07
2019-01-02T00:28:50.423Z,1010.12
2019-01-02T00:29:50.398Z,1010.07
2019-01-02T00:30:50.376Z,1010.17
2019-01-02T00:31:50.355Z,1010.12
2019-01-02T00:32:50.327Z,1010.14
2019-01-02T00:33:50.303Z,1010.13
2019-01-02T00:34:50.286Z,1010.16
2019-01-02T00:35:50.262Z,1010.17
2019-01-02T00:36:50.236Z,1010.16
2019-01-02T00:37:50.213Z,1010.18
2019-01-02T00:38:50.188Z,1010.15
2019-01-02T00:39:50.171Z,1010.16
2019-01-02T00:40:50.145Z,1010.21
2019-01-02T00:41:50.123Z,1010.17
2019-01-02T00:42:50.099Z,1010.12
2019-01-02T00:43:50.073Z,1010.10
2019-01-02T00:44:50.057Z,1010.08
2019-01-02T00:45:50.033Z,1010.05
2019-01-02T00:46:50.008Z,1010.10
2019-01-02T00:47:49.980Z,1010.12
2019-01-02T00:48:49.962Z,1010.15
2019-01-02T00:49:49.938Z,1010.11
2019-01-02T00:50:49.960Z,1010.09
2019-01-02T00:51:49.889Z,1010.13
2019-01-02T00:52:49.877Z,1010.17
2019-01-02T00:53:49.844Z,1010.09
2019-01-02T00:54:49.828Z,1010.17
2019-01-02T00:55:49.799Z,1010.22
2019-01-02T00:56:49.786Z,1010.22
2019-01-02T00:57:49.756Z,1010.21
2019-01-02T00:58:49.732Z,1010.27
2019-01-02T00:59:49.706Z,1010.24
2019-01-02T01:00:49.688Z,1010.29
2019-01-02T01:01:49.660Z,1010.21
2019-01-02T01:02:49.638Z,1010.32
2019-01-02T01:03:49.617Z,1010.30
2019-01-02T01:04:49.599Z,1010.25
2019-01-02T01:05:49.567Z,1010.33
2019-01-02T01:06:49.547Z,1010.38
2019-01-02T01:07:49.520Z,1010.43
2019-01-02T01:08:49.498Z,1010.38
2019-01-02T01:09:49.476Z,1010.36
2019-01-02T01:10:49.455Z,1010.37
2019-01-02T01:11:49.436Z,1010.36
2019-01-02T01:12:49.409Z,1010.39
2019-01-02T01:13:49.382Z,1010.37
2019-01-02T01:14:49.358Z,1010.43
2019-01-02T01:15:49.340Z,1010.43
2019-01-02T01:16:49.318Z,1010.37
2019-01-02T01:17:49.288Z,1010.41
2019-01-02T01:18:49.268Z,1010.43
2019-01-02T01:19:49.246Z,1010.41
2019-01-02T01:20:49.226Z,1010.42
2019-01-02T01:21:49.198Z,1010.41
2019-01-02T01:22:49.175Z,1010.47
2019-01-02T01:23:49.155Z,1010.37
2019-01-02T01:24:49.126Z,1010.51
2019-01-02T01:25:49.107Z,1010.45
2019-01-02T01:26:49.085Z,1010.42
2019-01-02T01:27:49.061Z,1010.49
2019-01-02T01:28:49.036Z,1010.44
2019-01-02T01:29:49.010Z,1010.48
2019-01-02T01:30:48.992Z,1010.49
2019-01-02T01:31:48.967Z,1010.52
2019-01-02T01:32:48.945Z,1010.53
2019-01-02T01:33:48.916Z,1010.53
2019-01-02T01:34:48.897Z,1010.58
2019-01-02T01:35:48.875Z,1010.56
2019-01-02T01:36:48.853Z,1010.61
2019-01-02T01:37:48.828Z,1010.63
2019-01-02T01:38:48.811Z,1010.72
2019-01-02T01:39:48.780Z,1010.67
2019-01-02T01:40:48.755Z,1010.63
2019-01-02T01:41:48.737Z,1010.71
2019-01-02T01:42:48.710Z,1010.65
2019-01-02T01:43:48.691Z,1010.61
2019-01-02T01:44:48.665Z,1010.71
2019-01-02T01:45:48.645Z,1010.64
2019-01-02T01:46:48.616Z,1010.64
2019-01-02T01:47:48.596Z,1010.58
2019-01-02T01:48:48.573Z,1010.67
2019-01-02T01:49:48.553Z,1010.69
2019-01-02T01:50:48.527Z,1010.64
2019-01-02T01:51:48.507Z,1010.65
2019-01-02T01:52:48.480Z,1010.57
2019-01-02T01:53:48.464Z,1010.69
2019-01-02T01:54:48.432Z,1010.63
2019-01-02T01:55:48.406Z,1010.68
2019-01-02T01:56:48.400Z,1010.63
2019-01-02T01:57:48.364Z,1010.60
2019-01-02T01:58:48.341Z,1010.66
2019-01-02T01:59:48.323Z,1010.64
2019-01-02T02:00:48.298Z,1010.68
2019-01-02T02:01:48.277Z,1010.60
2019-01-02T02:02:48.248Z,1010.63
2019-01-02T02:03:48.232Z,1010.60
2019-01-02T02:04:48.200Z,1010.59
2019-01-02T02:05:48.177Z,1010.72
2019-01-02T02:06:48.153Z,1010.68
2019-01-02T02:07:48.132Z,1010.71
2019-01-02T02:08:48.108Z,1010.68
2019-01-02T02:09:48.088Z,1010.68
2019-01-02T02:10:48.059Z,1010.74
2019-01-02T02:11:48.043Z,1010.78
2019-01-02T02:12:48.016Z,1010.74
2019-01-02T02:13:47.994Z,1010.81
2019-01-02T02:14:47.979Z,1010.73
2019-01-02T02:15:47.949Z,1010.74
2019-01-02T02:16:47.922Z,1010.65
2019-01-02T02:17:47.898Z,1010.61
2019-01-02T02:18:47.882Z,1010.66
2019-01-02T02:19:47.857Z,1010.64
2019-01-02T02:20:47.830Z,1010.68
2019-01-02T02:21:47.806Z,1010.75
2019-01-02T02:22:47.789Z,1010.73
2019-01-02T02:23:47.761Z,1010.75
2019-01-02T02:24:47.740Z,1010.82
2019-01-02T02:25:47.718Z,1010.77
2019-01-02T02:26:47.692Z,1010.81
2019-01-02T02:27:47.671Z,1010.76
2019-01-02T02:28:47.662Z,1010.84
2019-01-02T02:29:47.632Z,1010.79
2019-01-02T02:30:47.601Z,1010.87
2019-01-02T02:31:47.573Z,1010.83
2019-01-02T02:32:47.564Z,1010.81
2019-01-02T02:33:47.527Z,1010.83
2019-01-02T02:34:47.507Z,1010.80
2019-01-02T02:35:47.485Z,1010.87
2019-01-02T02:36:47.460Z,1010.88
2019-01-02T02:37:47.435Z,1010.97
2019-01-02T02:38:47.416Z,1010.91
2019-01-02T02:39:47.391Z,1010.86
2019-01-02T02:40:47.368Z,1010.93
2019-01-02T02:41:47.346Z,1010.92
2019-01-02T02:42:47.321Z,1010.97
2019-01-02T02:43:47.301Z,1010.96
2019-01-02T02:44:47.281Z,1010.96
2019-01-02T02:45:47.251Z,1010.98
2019-01-02T02:46:47.226Z,1011.00
2019-01-02T02:47:47.206Z,1011.05
2019-01-02T02:48:47.182Z,1010.94
2019-01-02T02:49:47.160Z,1011.07
2019-01-02T02:50:47.137Z,1011.04
2019-01-02T02:51:47.112Z,1011.06
2019-01-02T02:52:47.089Z,1011.03
2019-01-02T02:53:47.062Z,1011.02
2019-01-02T02:54:47.045Z,1011.08
2019-01-02T02:55:47.015Z,1011.08
2019-01-02T02:56:46.994Z,1011.01
2019-01-02T02:57:46.974Z,1010.99
2019-01-02T02:58:46.950Z,1011.06
2019-01-02T02:59:46.927Z,1011.00
2019-01-02T03:00:46.903Z,1011.11
2019-01-02T03:01:46.881Z,1011.01
2019-01-02T03:02:46.858Z,1011.06
2019-01-02T03:03:46.831Z,1011.05
2019-01-02T03:04:46.806Z,1011.06
2019-01-02T03:05:46.785Z,1011.09
2019-01-02T03:06:47.314Z,1011.01
2019-01-02T03:07:46.738Z,1011.07
2019-01-02T03:08:46.719Z,1011.10
2019-01-02T03:09:46.690Z,1010.98
2019-01-02T03:10:46.674Z,1010.96
2019-01-02T03:11:46.661Z,1011.04
2019-01-02T03:12:46.622Z,1011.00
2019-01-02T03:13:46.601Z,1011.04
2019-01-02T03:14:46.578Z,1011.08
2019-01-02T03:15:46.553Z,1011.07
2019-01-02T03:16:46.534Z,1011.11
2019-01-02T03:17:46.510Z,1011.03
2019-01-02T03:18:46.482Z,1011.12
2019-01-02T03:19:46.458Z,1011.12
2019-01-02T03:20:46.440Z,1011.15
2019-01-02T03:21:46.420Z,1011.20
2019-01-02T03:22:46.388Z,1011.16
2019-01-02T03:23:46.367Z,1011.23
2019-01-02T03:24:46.348Z,1011.21
2019-01-02T03:25:46.322Z,1011.28
2019-01-02T03:26:46.297Z,1011.11
2019-01-02T03:27:46.286Z,1011.15
2019-01-02T03:28:46.256Z,1011.17
2019-01-02T03:29:46.234Z,1011.18
2019-01-02T03:30:46.209Z,1011.24
2019-01-02T03:31:46.182Z,1011.11
2019-01-02T03:32:46.160Z,1011.19
2019-01-02T03:33:46.144Z,1011.16
2019-01-02T03:34:46.116Z,1011.14
2019-01-02T03:35:46.088Z,1011.20
2019-01-02T03:36:46.074Z,1011.10
2019-01-02T03:37:46.046Z,1011.24
2019-01-02T03:38:46.024Z,1011.27
2019-01-02T03:39:46.000Z,1011.29
2019-01-02T03:40:45.980Z,1011.32
2019-01-02T03:41:45.956Z,1011.26
2019-01-02T03:42:45.935Z,1011.37
2019-01-02T03:43:45.906Z,1011.34
2019-01-02T03:44:45.884Z,1011.41
2019-01-02T03:45:45.864Z,1011.41
2019-01-02T03:46:45.834Z,1011.48
2019-01-02T03:47:45.816Z,1011.49
2019-01-02T03:48:45.793Z,1011.54
2019-01-02T03:49:45.770Z,1011.44
2019-01-02T03:50:45.750Z,1011.40
2019-01-02T03:51:45.722Z,1011.38
2019-01-02T03:52:45.702Z,1011.44
2019-01-02T03:53:45.682Z,1011.29
2019-01-02T03:54:45.652Z,1011.30
2019-01-02T03:55:45.633Z,1011.25
2019-01-02T03:56:45.608Z,1011.23
2019-01-02T03:57:45.587Z,1011.15
2019-01-02T03:58:45.562Z,1011.26
2019-01-02T03:59:45.538Z,1011.25
2019-01-02T04:00:45.521Z,1011.30
2019-01-02T04:01:45.493Z,1011.30
2019-01-02T04:02:45.476Z,1011.36
2019-01-02T04:03:45.473Z,1011.41
2019-01-02T04:04:45.426Z,1011.45
2019-01-02T04:05:45.402Z,1011.48
2019-01-02T04:06:45.378Z,1011.57
2019-01-02T04:07:45.352Z,1011.59
2019-01-02T04:08:45.334Z,1011.61
2019-01-02T04:09:45.318Z,1011.64
2019-01-02T04:10:45.290Z,1011.64
2019-01-02T04:11:45.265Z,1011.63
2019-01-02T04:12:45.240Z,1011.54
2019-01-02T04:13:45.214Z,1011.56
2019-01-02T04:14:45.194Z,1011.52
2019-01-02T04:15:45.174Z,1011.59
2019-01-02T04:16:45.148Z,1011.56
2019-01-02T04:17:45.126Z,1011.61
2019-01-02T04:18:45.105Z,1011.64
2019-01-02T04:19:45.082Z,1011.66
2019-01-02T04:20:45.055Z,1011.59
2019-01-02T04:21:45.039Z,1011.58
2019-01-02T04:22:45.010Z,1011.52
2019-01-02T04:23:44.988Z,1011.47
2019-01-02T04:24:44.966Z,1011.50
2019-01-02T04:25:44.943Z,1011.62
2019-01-02T04:26:44.921Z,1011.61
2019-01-02T04:27:44.893Z,1011.67
2019-01-02T04:28:44.877Z,1011.73
2019-01-02T04:29:44.850Z,1011.82
2019-01-02T04:30:44.824Z,1011.85
2019-01-02T04:31:44.808Z,1011.80
2019-01-02T04:32:44.782Z,1011.85
2019-01-02T04:33:44.761Z,1011.89
2019-01-02T04:34:44.742Z,1011.89
2019-01-02T04:35:44.710Z,1011.91
2019-01-02T04:36:44.688Z,1012.09
2019-01-02T04:37:44.673Z,1012.09
2019-01-02T04:38:44.646Z,1012.10
2019-01-02T04:39:44.620Z,1012.16
2019-01-02T04:40:44.597Z,1012.23
2019-01-02T04:41:44.576Z,1012.10
2019-01-02T04:42:44.552Z,1012.18
2019-01-02T04:43:44.536Z,1012.17
2019-01-02T04:44:44.506Z,1012.11
2019-01-02T04:45:44.483Z,1012.09
2019-01-02T04:46:44.460Z,1012.09
2019-01-02T04:47:44.440Z,1012.09
2019-01-02T04:48:44.416Z,1012.07
2019-01-02T04:49:44.394Z,1012.08
2019-01-02T04:50:44.373Z,1011.94
2019-01-02T04:51:44.348Z,1012.03
2019-01-02T04:52:44.324Z,1012.05
2019-01-02T04:53:44.300Z,1012.12
2019-01-02T04:54:44.276Z,1012.06
2019-01-02T04:55:44.257Z,1012.11
2019-01-02T04:56:44.234Z,1012.10
2019-01-02T04:57:44.214Z,1012.12
2019-01-02T04:58:44.181Z,1012.10
2019-01-02T04:59:44.162Z,1012.07
2019-01-02T05:00:44.139Z,1012.11
2019-01-02T05:01:44.118Z,1012.05
2019-01-02T05:02:44.099Z,1012.10
2019-01-02T05:03:44.070Z,1012.20
2019-01-02T05:04:44.046Z,1012.23
2019-01-02T05:05:44.027Z,1012.21
2019-01-02T05:06:44.002Z,1012.23
2019-01-02T05:07:43.980Z,1012.23
2019-01-02T05:08:43.957Z,1012.20
2019-01-02T05:09:43.931Z,1012.25
2019-01-02T05:10:43.916Z,1012.23
2019-01-02T05:11:43.886Z,1012.33
2019-01-02T05:12:43.868Z,1012.28
2019-01-02T05:13:43.842Z,1012.41
2019-01-02T05:14:43.813Z,1012.45
2019-01-02T05:15:43.794Z,1012.43
2019-01-02T05:16:43.774Z,1012.38
2019-01-02T05:17:43.749Z,1012.39
2019-01-02T05:18:43.731Z,1012.46
2019-01-02T05:19:43.703Z,1012.53
2019-01-02T05:20:43.679Z,1012.49
2019-01-02T05:21:43.657Z,1012.63
2019-01-02T05:22:43.630Z,1012.72
2019-01-02T05:23:43.607Z,1012.76
2019-01-02T05:24:43.587Z,1012.73
2019-01-02T05:25:43.564Z,1012.71
2019-01-02T05:26:43.545Z,1012.72
2019-01-02T05:27:43.521Z,1012.78
2019-01-02T05:28:43.495Z,1012.68
2019-01-02T05:29:43.471Z,1012.81
2019-01-02T05:30:43.454Z,1012.80
2019-01-02T05:31:43.426Z,1012.78
2019-01-02T05:32:43.402Z,1012.85
2019-01-02T05:33:43.385Z,1012.86
2019-01-02T05:34:43.355Z,1012.95
2019-01-02T05:35:43.339Z,1012.95
2019-01-02T05:36:43.309Z,1012.94
2019-01-02T05:37:43.288Z,1013.01
2019-01-02T05:38:43.263Z,1013.06
2019-01-02T05:39:43.243Z,1013.09
2019-01-02T05:40:43.217Z,1013.12
2019-01-02T05:41:43.195Z,1013.22
2019-01-02T05:42:43.171Z,1013.17
2019-01-02T05:43:43.153Z,1013.25
2019-01-02T05:44:43.134Z,1013.17
2019-01-02T05:45:43.106Z,1013.13
2019-01-02T05:46:43.079Z,1013.16
2019-01-02T05:47:43.060Z,1013.18
2019-01-02T05:48:43.032Z,1013.10
2019-01-02T05:49:43.009Z,1013.16
2019-01-02T05:50:42.989Z,1013.18
2019-01-02T05:51:42.964Z,1013.17
2019-01-02T05:52:42.944Z,1013.14
2019-01-02T05:53:42.919Z,1013.15
2019-01-02T05:54:42.897Z,1013.24
2019-01-02T05:55:42.872Z,1013.21
2019-01-02T05:56:42.851Z,1013.21
2019-01-02T05:57:42.833Z,1013.24
2019-01-02T05:58:42.855Z,1013.19
2019-01-02T05:59:42.787Z,1013.28
2019-01-02T06:00:42.756Z,1013.29
2019-01-02T06:01:42.737Z,1013.29
2019-01-02T06:02:42.709Z,1013.31
2019-01-02T06:03:42.686Z,1013.29
2019-01-02T06:04:42.667Z,1013.34
2019-01-02T06:05:42.647Z,1013.36
2019-01-02T06:06:42.621Z,1013.38
2019-01-02T06:07:42.597Z,1013.41
2019-01-02T06:08:42.575Z,1013.34
2019-01-02T06:09:42.552Z,1013.44
2019-01-02T06:10:42.530Z,1013.50
2019-01-02T06:11:42.508Z,1013.56
2019-01-02T06:12:42.482Z,1013.48
2019-01-02T06:13:42.468Z,1013.58
2019-01-02T06:14:42.442Z,1013.67
2019-01-02T06:15:42.416Z,1013.66
2019-01-02T06:16:42.399Z,1013.55
2019-01-02T06:17:42.379Z,1013.69
2019-01-02T06:18:42.342Z,1013.74
2019-01-02T06:19:42.322Z,1013.72
2019-01-02T06:20:42.302Z,1013.71
2019-01-02T06:21:42.283Z,1013.66
2019-01-02T06:22:42.256Z,1013.74
2019-01-02T06:23:42.235Z,1013.74
2019-01-02T06:24:42.206Z,1013.72
2019-01-02T06:25:42.190Z,1013.66
2019-01-02T06:26:42.163Z,1013.69
2019-01-02T06:27:42.141Z,1013.74
2019-01-02T06:28:42.119Z,1013.83
2019-01-02T06:29:42.097Z,1013.70
2019-01-02T06:30:42.073Z,1013.79
2019-01-02T06:31:42.045Z,1013.88
2019-01-02T06:32:42.025Z,1013.94
2019-01-02T06:33:42.002Z,1013.95
2019-01-02T06:34:41.977Z,1014.02
2019-01-02T06:35:41.955Z,1014.15
2019-01-02T06:36:41.937Z,1014.10
2019-01-02T06:37:41.912Z,1014.10
2019-01-02T06:38:41.887Z,1014.17
2019-01-02T06:39:41.861Z,1014.15
2019-01-02T06:40:41.843Z,1014.10
2019-01-02T06:41:41.818Z,1014.23
2019-01-02T06:42:41.800Z,1014.28
2019-01-02T06:43:41.773Z,1014.22
2019-01-02T06:44:41.752Z,1014.29
2019-01-02T06:45:41.727Z,1014.28
2019-01-02T06:46:41.703Z,1014.27
2019-01-02T06:47:41.682Z,1014.35
2019-01-02T06:48:41.655Z,1014.35
2019-01-02T06:49:41.633Z,1014.41
2019-01-02T06:50:41.607Z,1014.42
2019-01-02T06:51:41.591Z,1014.41
2019-01-02T06:52:41.561Z,1014.48
2019-01-02T06:53:41.542Z,1014.52
2019-01-02T06:54:41.517Z,1014.54
2019-01-02T06:55:41.493Z,1014.57
2019-01-02T06:56:41.469Z,1014.55
2019-01-02T06:57:41.452Z,1014.58
2019-01-02T06:58:41.425Z,1014.59
2019-01-02T06:59:41.402Z,1014.62
2019-01-02T07:00:41.383Z,1014.66
2019-01-02T07:01:41.362Z,1014.66
2019-01-02T07:02:41.332Z,1014.61
2019-01-02T07:03:41.315Z,1014.74
2019-01-02T07:04:41.287Z,1014.74
2019-01-02T07:05:41.264Z,1014.85
2019-01-02T07:06:41.257Z,1014.86
2019-01-02T07:07:41.218Z,1014.82
2019-01-02T07:08:41.209Z,1014.87
2019-01-02T07:09:41.169Z,1014.97
2019-01-02T07:10:41.151Z,1014.91
2019-01-02T07:11:41.126Z,1015.01
2019-01-02T07:12:41.111Z,1015.06
2019-01-02T07:13:41.077Z,1015.07
2019-01-02T07:14:41.055Z,1015.04
2019-01-02T07:15:41.035Z,1015.15
2019-01-02T07:16:41.012Z,1015.23
2019-01-02T07:17:40.991Z,1015.23
2019-01-02T07:18:40.966Z,1015.29
2019-01-02T07:19:40.947Z,1015.27
2019-01-02T07:20:40.923Z,1015.32
2019-01-02T07:21:40.896Z,1015.38
2019-01-02T07:22:40.877Z,1015.32
2019-01-02T07:23:40.847Z,1015.38
2019-01-02T07:24:40.825Z,1015.44
2019-01-02T07:25:40.803Z,1015.53
2019-01-02T07:26:40.781Z,1015.56
2019-01-02T07:27:40.755Z,1015.56
2019-01-02T07:28:40.738Z,1015.55
2019-01-02T07:29:40.713Z,1015.61
2019-01-02T07:30:40.691Z,1015.52
2019-01-02T07:31:40.665Z,1015.61
2019-01-02T07:32:40.650Z,1015.56
2019-01-02T07:33:40.620Z,1015.51
2019-01-02T07:34:40.895Z,1015.52
2019-01-02T07:35:40.573Z,1015.54
2019-01-02T07:36:40.557Z,1015.54
2019-01-02T07:37:40.525Z,1015.56
2019-01-02T07:38:40.568Z,1015.56
2019-01-02T07:39:40.493Z,1015.63
2019-01-02T07:40:40.457Z,1015.57
2019-01-02T07:41:40.439Z,1015.60
2019-01-02T07:42:40.461Z,1015.63
2019-01-02T07:43:40.389Z,1015.59
2019-01-02T07:44:40.367Z,1015.61
2019-01-02T07:45:40.345Z,1015.61
2019-01-02T07:46:40.317Z,1015.65
2019-01-02T07:47:40.296Z,1015.64
2019-01-02T07:48:40.272Z,1015.65
2019-01-02T07:49:40.249Z,1015.64
2019-01-02T07:50:40.230Z,1015.72
2019-01-02T07:51:40.203Z,1015.62
2019-01-02T07:52:40.187Z,1015.65
2019-01-02T07:53:40.160Z,1015.70
2019-01-02T07:54:40.134Z,1015.66
2019-01-02T07:55:40.115Z,1015.73
2019-01-02T07:56:40.088Z,1015.74
2019-01-02T07:57:40.065Z,1015.73
2019-01-02T07:58:40.048Z,1015.80
2019-01-02T07:59:40.015Z,1015.77
2019-01-02T08:00:39.992Z,1015.79
2019-01-02T08:01:39.973Z,1015.82
2019-01-02T08:02:39.955Z,1015.84
2019-01-02T08:03:39.925Z,1015.85
2019-01-02T08:04:39.908Z,1015.84
2019-01-02T08:05:39.878Z,1015.87
2019-01-02T08:06:39.854Z,1015.92
2019-01-02T08:07:39.828Z,1015.96
2019-01-02T08:08:39.811Z,1015.92
2019-01-02T08:09:39.789Z,1015.97
2019-01-02T08:10:39.760Z,1015.98
2019-01-02T08:11:39.740Z,1015.99
2019-01-02T08:12:39.714Z,1016.05
2019-01-02T08:13:40.947Z,1016.04
2019-01-02T08:14:39.674Z,1016.08
2019-01-02T08:15:39.647Z,1016.13
2019-01-02T08:16:39.626Z,1016.18
2019-01-02T08:17:39.597Z,1016.22
2019-01-02T08:18:39.579Z,1016.31
2019-01-02T08:19:39.554Z,1016.39
2019-01-02T08:20:39.534Z,1016.56
2019-01-02T08:21:39.510Z,1016.62
2019-01-02T08:22:39.486Z,1016.71
2019-01-02T08:23:39.458Z,1016.73
2019-01-02T08:24:39.449Z,1016.79
2019-01-02T08:25:39.414Z,1016.72
2019-01-02T08:26:39.392Z,1016.80
2019-01-02T08:27:39.368Z,1016.78
2019-01-02T08:28:39.343Z,1016.84
2019-01-02T08:29:39.321Z,1016.83
2019-01-02T08:30:39.304Z,1016.92
2019-01-02T08:31:39.278Z,1016.93
2019-01-02T08:32:39.259Z,1016.97
2019-01-02T08:33:39.230Z,1016.98
2019-01-02T08:34:39.208Z,1016.98
2019-01-02T08:35:39.186Z,1016.97
2019-01-02T08:36:39.159Z,1016.97
2019-01-02T08:37:39.138Z,1017.04
2019-01-02T08:38:39.115Z,1017.05
2019-01-02T08:39:39.094Z,1017.07
2019-01-02T08:40:39.070Z,1017.12
2019-01-02T08:41:39.048Z,1017.17
2019-01-02T08:42:39.022Z,1017.22
2019-01-02T08:43:38.999Z,1017.23
2019-01-02T08:44:38.976Z,1017.25
2019-01-02T08:45:38.956Z,1017.29
2019-01-02T08:46:38.930Z,1017.37
2019-01-02T08:47:38.909Z,1017.38
2019-01-02T08:48:38.881Z,1017.43
2019-01-02T08:49:38.857Z,1017.42
2019-01-02T08:50:38.844Z,1017.41
2019-01-02T08:51:38.812Z,1017.45
2019-01-02T08:52:38.789Z,1017.44
2019-01-02T08:53:38.769Z,1017.48
2019-01-02T08:54:38.744Z,1017.43
2019-01-02T08:55:38.723Z,1017.35
2019-01-02T08:56:38.695Z,1017.43
2019-01-02T08:57:38.675Z,1017.53
2019-01-02T08:58:38.651Z,1017.43
2019-01-02T08:59:38.624Z,1017.52
2019-01-02T09:00:38.604Z,1017.58
2019-01-02T09:01:38.579Z,1017.60
2019-01-02T09:02:38.558Z,1017.64
2019-01-02T09:03:38.532Z,1017.66
2019-01-02T09:04:38.520Z,1017.68
2019-01-02T09:05:38.489Z,1017.69
2019-01-02T09:06:38.463Z,1017.72
2019-01-02T09:07:38.440Z,1017.73
2019-01-02T09:08:38.416Z,1017.74
2019-01-02T09:09:38.393Z,1017.75
2019-01-02T09:10:38.370Z,1017.78
2019-01-02T09:11:38.345Z,1017.75
2019-01-02T09:12:38.322Z,1017.78
2019-01-02T09:13:38.300Z,1017.79
2019-01-02T09:14:38.299Z,1017.73
2019-01-02T09:15:38.256Z,1017.74
2019-01-02T09:16:38.230Z,1017.84
2019-01-02T09:17:38.221Z,1017.82
2019-01-02T09:18:38.185Z,1017.88
2019-01-02T09:19:38.160Z,1017.89
2019-01-02T09:20:38.135Z,1017.88
2019-01-02T09:21:38.115Z,1017.89
2019-01-02T09:22:38.088Z,1017.93
2019-01-02T09:23:38.065Z,1017.91
2019-01-02T09:24:38.044Z,1018.02
2019-01-02T09:25:38.023Z,1017.98
2019-01-02T09:26:37.995Z,1018.01
2019-01-02T09:27:37.973Z,1018.02
2019-01-02T09:28:37.951Z,1017.98
2019-01-02T09:29:37.938Z,1018.02
2019-01-02T09:30:37.906Z,1018.09
2019-01-02T09:31:37.883Z,1018.09
2019-01-02T09:32:37.859Z,1018.12
2019-01-02T09:33:37.832Z,1018.13
2019-01-02T09:34:37.811Z,1018.07
2019-01-02T09:35:37.788Z,1018.20
2019-01-02T09:36:37.771Z,1018.21
2019-01-02T09:37:37.744Z,1018.22
2019-01-02T09:38:37.720Z,1018.20
2019-01-02T09:39:37.693Z,1018.25
2019-01-02T09:40:37.699Z,1018.32
2019-01-02T09:41:37.649Z,1018.35
2019-01-02T09:42:37.626Z,1018.39
2019-01-02T09:43:37.608Z,1018.37
2019-01-02T09:44:37.593Z,1018.37
2019-01-02T09:45:37.555Z,1018.43
2019-01-02T09:46:37.533Z,1018.46
2019-01-02T09:47:37.509Z,1018.49
2019-01-02T09:48:37.499Z,1018.59
2019-01-02T09:49:37.559Z,1018.53
2019-01-02T09:50:37.444Z,1018.63
2019-01-02T09:51:37.420Z,1018.56
2019-01-02T09:52:37.392Z,1018.53
2019-01-02T09:53:37.368Z,1018.60
2019-01-02T09:54:37.345Z,1018.64
2019-01-02T09:55:37.323Z,1018.58
2019-01-02T09:56:37.302Z,1018.60
2019-01-02T09:57:37.277Z,1018.57
2019-01-02T09:58:37.253Z,1018.63
2019-01-02T09:59:37.231Z,1018.71
2019-01-02T10:00:37.207Z,1018.68
2019-01-02T10:01:37.183Z,1018.74
2019-01-02T10:02:37.159Z,1018.82
2019-01-02T10:03:37.134Z,1018.80
2019-01-02T10:04:37.112Z,1018.76
2019-01-02T10:05:37.093Z,1018.78
2019-01-02T10:06:37.075Z,1018.88
2019-01-02T10:07:37.070Z,1018.80
2019-01-02T10:08:37.027Z,1018.90
2019-01-02T10:09:36.994Z,1018.89
2019-01-02T10:10:36.972Z,1018.91
2019-01-02T10:11:36.956Z,1018.88
2019-01-02T10:12:36.930Z,1018.90
2019-01-02T10:13:36.906Z,1018.94
2019-01-02T10:14:36.887Z,1018.90
2019-01-02T10:15:36.859Z,1018.97
2019-01-02T10:16:36.836Z,1019.04
2019-01-02T10:17:36.810Z,1019.00
2019-01-02T10:18:36.790Z,1019.03
2019-01-02T10:19:36.764Z,1019.05
2019-01-02T10:20:36.757Z,1019.06
2019-01-02T10:21:36.720Z,1019.10
2019-01-02T10:22:36.706Z,1019.06
2019-01-02T10:23:36.672Z,1019.06
2019-01-02T10:24:36.658Z,1019.10
2019-01-02T10:25:36.627Z,1019.09
2019-01-02T10:26:36.610Z,1019.11
2019-01-02T10:27:36.582Z,1019.15
2019-01-02T10:28:36.562Z,1019.37
2019-01-02T10:29:36.538Z,1019.49
2019-01-02T10:30:36.511Z,1019.37
2019-01-02T10:31:36.495Z,1019.42
2019-01-02T10:32:36.470Z,1019.40
2019-01-02T10:33:36.445Z,1019.28
2019-01-02T10:34:36.423Z,1019.26
2019-01-02T10:35:36.402Z,1019.26
2019-01-02T10:36:36.380Z,1019.25
2019-01-02T10:37:36.354Z,1019.29
2019-01-02T10:38:36.330Z,1019.31
2019-01-02T10:39:36.312Z,1019.30
2019-01-02T10:40:36.286Z,1019.34
2019-01-02T10:41:36.266Z,1019.33
2019-01-02T10:42:36.242Z,1019.36
2019-01-02T10:43:36.220Z,1019.44
2019-01-02T10:44:36.196Z,1019.46
2019-01-02T10:45:36.171Z,1019.49
2019-01-02T10:46:36.153Z,1019.43
2019-01-02T10:47:36.128Z,1019.50
2019-01-02T10:48:36.108Z,1019.48
2019-01-02T10:49:36.097Z,1019.51
2019-01-02T10:50:36.065Z,1019.51
2019-01-02T10:51:36.040Z,1019.55
2019-01-02T10:52:36.019Z,1019.53
2019-01-02T10:53:35.996Z,1019.49
2019-01-02T10:54:35.975Z,1019.52
2019-01-02T10:55:35.950Z,1019.49
2019-01-02T10:56:35.936Z,1019.53
2019-01-02T10:57:35.907Z,1019.52
2019-01-02T10:58:36.680Z,1019.55
2019-01-02T10:59:35.861Z,1019.53
2019-01-02T11:00:35.842Z,1019.57
2019-01-02T11:01:35.819Z,1019.59
2019-01-02T11:02:35.798Z,1019.54
2019-01-02T11:03:35.770Z,1019.59
2019-01-02T11:04:35.754Z,1019.65
2019-01-02T11:05:35.732Z,1019.70
2019-01-02T11:06:35.706Z,1019.62
2019-01-02T11:07:35.688Z,1019.67
2019-01-02T11:08:35.667Z,1019.67
2019-01-02T11:09:35.640Z,1019.60
2019-01-02T11:10:35.626Z,1019.64
2019-01-02T11:11:35.596Z,1019.53
2019-01-02T11:12:35.578Z,1019.63
2019-01-02T11:13:35.554Z,1019.61
2019-01-02T11:14:35.533Z,1019.61
2019-01-02T11:15:35.510Z,1019.65
2019-01-02T11:16:35.488Z,1019.69
2019-01-02T11:17:35.466Z,1019.72
2019-01-02T11:18:35.444Z,1019.73
2019-01-02T11:19:35.420Z,1019.69
2019-01-02T11:20:35.404Z,1019.65
2019-01-02T11:21:35.380Z,1019.73
2019-01-02T11:22:35.357Z,1019.61
2019-01-02T11:23:35.333Z,1019.65
2019-01-02T11:24:35.314Z,1019.67
2019-01-02T11:25:35.290Z,1019.75
2019-01-02T11:27:35.249Z,1019.69
2019-01-02T11:28:35.224Z,1019.72
2019-01-02T11:29:35.202Z,1019.70
2019-01-02T11:30:35.182Z,1019.73
2019-01-02T11:31:35.160Z,1019.67
2019-01-02T11:32:35.138Z,1019.77
2019-01-02T11:33:35.115Z,1019.71
2019-01-02T11:34:35.095Z,1019.70
2019-01-02T11:35:35.074Z,1019.79
2019-01-02T11:36:35.051Z,1019.79
2019-01-02T11:37:35.036Z,1019.79
2019-01-02T11:38:35.006Z,1019.84
2019-01-02T11:39:34.982Z,1019.80
2019-01-02T11:40:34.961Z,1019.86
2019-01-02T11:41:34.939Z,1019.86
2019-01-02T11:42:34.919Z,1019.96
2019-01-02T11:43:34.897Z,1019.83
2019-01-02T11:44:34.872Z,1019.85
2019-01-02T11:45:34.852Z,1019.87
2019-01-02T11:46:34.836Z,1019.98
2019-01-02T11:47:34.810Z,1019.99
2019-01-02T11:48:34.789Z,1019.93
2019-01-02T11:49:34.770Z,1019.86
2019-01-02T11:50:34.756Z,1019.89
2019-01-02T11:51:34.719Z,1019.92
2019-01-02T11:52:34.700Z,1019.96
2019-01-02T11:53:34.678Z,1020.02
2019-01-02T11:54:34.660Z,1019.99
2019-01-02T11:55:34.644Z,1019.98
2019-01-02T11:56:34.613Z,1019.97
2019-01-02T11:57:34.594Z,1019.94
2019-01-02T11:58:34.568Z,1020.06
2019-01-02T11:59:34.547Z,1019.98
2019-01-02T12:00:34.527Z,1020.00
2019-01-02T12:01:34.510Z,1020.00
2019-01-02T12:02:34.482Z,1020.03
2019-01-02T12:03:34.461Z,1020.04
2019-01-02T12:04:34.439Z,1020.11
2019-01-02T12:05:34.419Z,1020.19
2019-01-02T12:06:34.394Z,1020.32